createdAt,value
2018-05-09T00:02:04.923Z,64.10
2018-05-09T00:04:32.428Z,64.00
2018-05-09T00:06:59.914Z,63.80
2018-05-09T00:09:27.416Z,64.10
2018-05-09T00:11:55.031Z,63.60
2018-05-09T00:14:22.528Z,64.10
2018-05-09T00:16:50.032Z,64.50
2018-05-09T00:19:17.554Z,64.70
2018-05-09T00:21:45.956Z,65.10
2018-05-09T00:24:13.463Z,65.10
2018-05-09T00:26:40.963Z,65.40
2018-05-09T00:29:08.488Z,65.50
2018-05-09T00:31:35.990Z,65.80
2018-05-09T00:34:03.486Z,65.80
2018-05-09T00:36:30.988Z,66.00
2018-05-09T00:38:59.265Z,65.80
2018-05-09T00:41:27.569Z,65.70
2018-05-09T00:43:55.073Z,65.70
2018-05-09T00:46:22.603Z,65.70
2018-05-09T00:48:50.101Z,65.20
2018-05-09T00:51:17.592Z,65.00
2018-05-09T00:53:45.091Z,65.40
2018-05-09T00:56:12.587Z,64.70
2018-05-09T00:58:40.869Z,64.80
2018-05-09T01:01:09.140Z,65.10
2018-05-09T01:03:37.417Z,65.10
2018-05-09T01:06:05.682Z,65.30
2018-05-09T01:08:33.188Z,65.30
2018-05-09T01:11:00.689Z,65.70
2018-05-09T01:13:28.198Z,66.10
2018-05-09T01:15:55.699Z,66.30
2018-05-09T01:18:23.206Z,66.50
2018-05-09T01:20:50.727Z,66.60
2018-05-09T01:23:18.224Z,66.70
2018-05-09T01:25:45.760Z,66.60
2018-05-09T01:28:14.031Z,66.80
2018-05-09T01:30:42.352Z,66.60
2018-05-09T01:33:09.880Z,66.60
2018-05-09T01:35:38.141Z,66.50
2018-05-09T01:38:06.539Z,66.50
2018-05-09T01:40:34.102Z,66.50
2018-05-09T01:43:01.602Z,66.50
2018-05-09T01:45:29.100Z,66.60
2018-05-09T01:47:57.396Z,66.80
2018-05-09T01:50:24.915Z,66.80
2018-05-09T01:52:52.402Z,67.10
2018-05-09T01:55:19.970Z,67.20
2018-05-09T01:57:47.480Z,67.30
2018-05-09T02:00:14.992Z,67.50
2018-05-09T02:02:42.542Z,67.80
2018-05-09T02:05:10.104Z,67.80
2018-05-09T02:07:38.366Z,67.90
2018-05-09T02:10:06.626Z,67.70
2018-05-09T02:12:34.128Z,67.60
2018-05-09T02:15:01.631Z,67.70
2018-05-09T02:17:29.149Z,67.40
2018-05-09T02:19:56.644Z,67.40
2018-05-09T02:22:24.147Z,67.50
2018-05-09T02:24:51.638Z,67.50
2018-05-09T02:27:19.137Z,67.40
2018-05-09T02:29:47.403Z,67.40
2018-05-09T02:32:15.008Z,67.40
2018-05-09T02:34:42.508Z,67.30
2018-05-09T02:37:10.109Z,67.30
2018-05-09T02:39:38.408Z,67.40
2018-05-09T02:42:05.927Z,67.30
2018-05-09T02:44:34.192Z,67.50
2018-05-09T02:47:01.698Z,67.50
2018-05-09T02:49:29.191Z,67.70
2018-05-09T02:51:56.696Z,67.80
2018-05-09T02:54:24.203Z,68.00
2018-05-09T02:56:51.704Z,68.20
2018-05-09T02:59:19.975Z,68.40
2018-05-09T03:01:59.946Z,68.30
2018-05-09T03:04:28.571Z,68.30
2018-05-09T03:06:56.076Z,68.30
2018-05-09T03:09:24.344Z,68.60
2018-05-09T03:11:52.611Z,68.80
2018-05-09T03:14:21.020Z,68.70
2018-05-09T03:16:48.519Z,68.70
2018-05-09T03:19:16.027Z,68.90
2018-05-09T03:21:43.553Z,69.00
2018-05-09T03:24:11.066Z,69.20
2018-05-09T03:26:38.555Z,69.20
2018-05-09T03:29:06.051Z,69.20
2018-05-09T03:31:34.310Z,69.30
2018-05-09T03:34:01.831Z,69.10
2018-05-09T03:36:29.332Z,69.30
2018-05-09T03:38:57.586Z,69.60
2018-05-09T03:41:25.088Z,69.50
2018-05-09T03:43:52.594Z,69.60
2018-05-09T03:46:20.099Z,69.70
2018-05-09T03:48:48.358Z,69.80
2018-05-09T03:51:16.650Z,69.90
2018-05-09T03:53:44.907Z,69.90
2018-05-09T03:56:13.195Z,70.00
2018-05-09T03:58:41.468Z,70.00
2018-05-09T04:01:09.767Z,70.20
2018-05-09T04:06:50.476Z,69.90
2018-05-09T04:09:29.938Z,69.90
2018-05-09T04:11:57.391Z,69.80
2018-05-09T04:14:24.911Z,69.80
2018-05-09T04:16:52.464Z,69.90
2018-05-09T04:19:19.963Z,69.50
2018-05-09T04:21:47.473Z,69.50
2018-05-09T04:24:15.003Z,69.30
2018-05-09T04:26:42.499Z,69.40
2018-05-09T04:29:09.994Z,68.80
2018-05-09T04:31:37.540Z,66.40
2018-05-09T04:34:05.040Z,64.20
2018-05-09T04:36:32.527Z,61.90
2018-05-09T04:39:00.100Z,60.00
2018-05-09T04:41:28.531Z,58.50
2018-05-09T04:43:56.068Z,56.80
2018-05-09T04:46:23.567Z,55.20
2018-05-09T04:48:51.842Z,54.50
2018-05-09T04:51:19.415Z,54.50
2018-05-09T04:53:46.907Z,53.80
2018-05-09T04:56:14.413Z,52.40
2018-05-09T04:58:42.822Z,51.20
2018-05-09T05:01:10.334Z,51.20
2018-05-09T05:03:37.838Z,50.90
2018-05-09T05:06:05.347Z,50.30
2018-05-09T05:08:32.850Z,49.50
2018-05-09T05:11:00.352Z,48.70
2018-05-09T05:13:27.869Z,48.20
2018-05-09T05:15:55.387Z,47.70
2018-05-09T05:18:22.907Z,47.30
2018-05-09T05:20:50.411Z,46.40
2018-05-09T05:23:18.691Z,45.60
2018-05-09T05:25:46.973Z,44.70
2018-05-09T05:28:15.231Z,43.70
2018-05-09T05:30:42.815Z,43.60
2018-05-09T05:33:10.342Z,42.70
2018-05-09T05:35:37.856Z,42.60
2018-05-09T05:38:05.383Z,41.60
2018-05-09T05:40:33.637Z,41.60
2018-05-09T05:43:01.152Z,41.50
2018-05-09T05:45:28.750Z,41.30
2018-05-09T05:47:56.952Z,43.10
2018-05-09T05:50:25.229Z,44.20
2018-05-09T05:52:52.746Z,44.20
2018-05-09T05:55:20.359Z,44.90
2018-05-09T05:57:47.923Z,45.20
2018-05-09T06:00:15.427Z,46.80
2018-05-09T06:02:42.954Z,47.90
2018-05-09T06:05:10.447Z,49.30
2018-05-09T06:07:37.954Z,50.60
2018-05-09T06:10:05.531Z,50.90
2018-05-09T06:12:33.875Z,51.20
2018-05-09T06:15:02.152Z,51.60
2018-05-09T06:17:30.427Z,52.20
2018-05-09T06:19:58.695Z,52.90
2018-05-09T06:22:26.982Z,53.20
2018-05-09T06:24:54.513Z,53.20
2018-05-09T06:27:22.773Z,53.70
2018-05-09T06:29:50.275Z,53.70
2018-05-09T06:32:18.538Z,53.60
2018-05-09T06:34:47.684Z,53.90
2018-05-09T06:37:15.193Z,53.80
2018-05-09T06:39:43.465Z,55.00
2018-05-09T06:42:10.970Z,55.00
2018-05-09T06:44:38.472Z,54.70
2018-05-09T06:47:05.991Z,55.10
2018-05-09T06:49:33.513Z,55.10
2018-05-09T06:52:01.820Z,54.80
2018-05-09T06:54:29.331Z,54.70
2018-05-09T06:56:56.835Z,54.10
2018-05-09T06:59:24.343Z,53.40
2018-05-09T07:01:51.947Z,53.50
2018-05-09T07:04:19.464Z,52.20
2018-05-09T07:06:47.978Z,52.60
2018-05-09T07:09:16.024Z,51.50
2018-05-09T07:11:44.290Z,51.50
2018-05-09T07:14:11.866Z,51.50
2018-05-09T07:16:40.138Z,51.80
2018-05-09T07:19:08.412Z,51.70
2018-05-09T07:21:36.674Z,51.90
2018-05-09T07:24:04.209Z,51.80
2018-05-09T07:26:31.716Z,51.70
2018-05-09T07:28:59.216Z,51.80
2018-05-09T07:31:26.719Z,51.70
2018-05-09T07:33:55.026Z,51.00
2018-05-09T07:36:22.535Z,51.00
2018-05-09T07:38:51.544Z,50.50
2018-05-09T07:41:19.840Z,51.00
2018-05-09T07:43:47.338Z,51.00
2018-05-09T07:46:14.848Z,50.50
2018-05-09T07:48:43.143Z,50.70
2018-05-09T07:51:10.704Z,51.30
2018-05-09T07:53:38.976Z,50.50
2018-05-09T07:56:06.492Z,50.50
2018-05-09T07:58:34.112Z,51.10
2018-05-09T08:01:01.640Z,50.60
2018-05-09T08:03:29.907Z,51.40
2018-05-09T08:05:58.186Z,51.60
2018-05-09T08:08:25.723Z,51.60
2018-05-09T08:10:53.234Z,51.80
2018-05-09T08:13:20.771Z,51.30
2018-05-09T08:15:49.035Z,51.20
2018-05-09T08:18:16.564Z,51.20
2018-05-09T08:20:44.066Z,51.20
2018-05-09T08:23:12.331Z,51.80
2018-05-09T08:25:40.612Z,52.50
2018-05-09T08:28:08.878Z,52.40
2018-05-09T08:30:37.164Z,52.70
2018-05-09T08:33:05.430Z,52.60
2018-05-09T08:35:33.715Z,53.40
2018-05-09T08:38:01.996Z,52.60
2018-05-09T08:40:29.510Z,52.50
2018-05-09T08:42:57.013Z,52.70
2018-05-09T08:45:24.515Z,53.30
2018-05-09T08:47:52.031Z,52.40
2018-05-09T08:50:19.538Z,52.20
2018-05-09T08:52:47.090Z,52.50
2018-05-09T08:55:14.602Z,51.60
2018-05-09T08:57:42.872Z,52.00
2018-05-09T09:00:11.138Z,52.30
2018-05-09T09:02:39.426Z,51.50
2018-05-09T09:05:07.706Z,51.60
2018-05-09T09:07:35.227Z,51.60
2018-05-09T09:10:02.758Z,49.70
2018-05-09T09:12:30.262Z,49.40
2018-05-09T09:14:58.544Z,49.20
2018-05-09T09:17:26.819Z,48.90
2018-05-09T09:19:55.101Z,48.30
2018-05-09T09:22:23.411Z,48.40
2018-05-09T09:24:50.903Z,48.40
2018-05-09T09:27:18.399Z,48.00
2018-05-09T09:29:46.678Z,48.40
2018-05-09T09:32:14.175Z,48.30
2018-05-09T09:34:41.684Z,47.50
2018-05-09T09:37:09.944Z,46.80
2018-05-09T09:39:38.219Z,47.20
2018-05-09T09:42:06.491Z,46.80
2018-05-09T09:44:34.016Z,46.80
2018-05-09T09:47:01.509Z,46.10
2018-05-09T09:49:29.006Z,45.90
2018-05-09T09:51:56.506Z,46.70
2018-05-09T09:54:24.000Z,46.10
2018-05-09T09:56:52.267Z,44.60
2018-05-09T09:59:19.844Z,44.50
2018-05-09T10:01:47.368Z,45.10
2018-05-09T10:04:14.890Z,44.50
2018-05-09T10:06:42.393Z,45.20
2018-05-09T10:09:10.660Z,43.80
2018-05-09T10:11:38.186Z,43.80
2018-05-09T10:14:05.721Z,43.50
2018-05-09T10:16:33.233Z,43.30
2018-05-09T10:19:01.510Z,44.40
2018-05-09T10:21:29.013Z,44.30
2018-05-09T10:23:56.527Z,43.70
2018-05-09T10:26:24.335Z,43.50
2018-05-09T10:28:51.848Z,42.60
2018-05-09T10:31:19.379Z,43.10
2018-05-09T10:33:46.862Z,42.50
2018-05-09T10:36:14.363Z,41.10
2018-05-09T10:38:42.622Z,38.90
2018-05-09T10:41:10.907Z,38.90
2018-05-09T10:43:39.181Z,37.20
2018-05-09T10:46:07.479Z,37.60
2018-05-09T10:48:34.982Z,37.50
2018-05-09T10:51:02.496Z,38.50
2018-05-09T10:53:30.000Z,39.60
2018-05-09T10:55:57.508Z,38.00
2018-05-09T10:58:25.004Z,37.70
2018-05-09T11:00:52.519Z,37.50
2018-05-09T11:03:20.023Z,39.20
2018-05-09T11:05:47.520Z,38.60
2018-05-09T11:08:15.786Z,38.20
2018-05-09T11:10:43.273Z,38.20
2018-05-09T11:13:10.778Z,39.20
2018-05-09T11:15:38.399Z,39.20
2018-05-09T11:18:05.920Z,39.20
2018-05-09T11:20:33.427Z,39.50
2018-05-09T11:23:00.932Z,39.70
2018-05-09T11:25:28.903Z,39.50
2018-05-09T11:27:57.173Z,36.70
2018-05-09T11:30:24.724Z,36.70
2018-05-09T11:32:52.226Z,38.40
2018-05-09T11:35:19.746Z,36.80
2018-05-09T11:37:47.243Z,37.10
2018-05-09T11:40:14.765Z,36.90
2018-05-09T11:42:42.278Z,37.00
2018-05-09T11:45:09.786Z,36.80
2018-05-09T11:47:37.335Z,36.80
2018-05-09T11:50:04.848Z,37.10
2018-05-09T11:52:32.355Z,36.60
2018-05-09T11:54:59.902Z,37.30
2018-05-09T11:57:27.465Z,36.90
2018-05-09T11:59:54.959Z,36.40
2018-05-09T12:02:23.229Z,37.10
2018-05-09T12:04:51.491Z,37.60
2018-05-09T12:07:18.978Z,37.50
2018-05-09T12:09:46.489Z,38.10
2018-05-09T12:12:13.991Z,38.30
2018-05-09T12:14:41.491Z,38.70
2018-05-09T12:17:09.001Z,38.50
2018-05-09T12:19:37.271Z,36.90
2018-05-09T12:22:05.533Z,37.00
2018-05-09T12:24:33.949Z,37.20
2018-05-09T12:27:01.464Z,37.20
2018-05-09T12:29:29.724Z,37.90
2018-05-09T12:31:57.243Z,37.90
2018-05-09T12:34:24.755Z,37.40
2018-05-09T12:36:53.050Z,37.80
2018-05-09T12:39:21.307Z,37.20
2018-05-09T12:41:48.817Z,37.20
2018-05-09T12:44:16.325Z,36.70
2018-05-09T12:46:43.830Z,36.60
2018-05-09T12:49:11.341Z,36.70
2018-05-09T12:51:40.376Z,36.70
2018-05-09T12:54:07.954Z,36.70
2018-05-09T12:56:35.494Z,37.30
2018-05-09T12:59:02.993Z,37.60
2018-05-09T13:01:30.488Z,37.50
2018-05-09T13:03:58.041Z,36.50
2018-05-09T13:06:26.307Z,36.60
2018-05-09T13:08:54.605Z,36.90
2018-05-09T13:11:22.114Z,37.30
2018-05-09T13:13:49.617Z,37.10
2018-05-09T13:16:17.137Z,36.90
2018-05-09T13:18:44.635Z,37.30
2018-05-09T13:21:12.900Z,36.70
2018-05-09T13:23:40.414Z,36.70
2018-05-09T13:26:07.920Z,37.10
2018-05-09T13:28:36.201Z,35.50
2018-05-09T13:31:04.501Z,35.50
2018-05-09T13:33:32.014Z,35.50
2018-05-09T13:35:59.600Z,36.60
2018-05-09T13:38:27.108Z,37.00
2018-05-09T13:40:54.608Z,36.60
2018-05-09T13:43:22.883Z,36.10
2018-05-09T13:45:51.154Z,36.40
2018-05-09T13:48:19.458Z,35.90
2018-05-09T13:50:46.943Z,35.80
2018-05-09T13:53:14.450Z,35.90
2018-05-09T13:55:42.749Z,36.70
2018-05-09T13:58:10.321Z,36.70
2018-05-09T14:00:37.823Z,37.40
2018-05-09T14:03:05.333Z,38.50
2018-05-09T14:05:32.831Z,38.80
2018-05-09T14:08:00.350Z,39.50
2018-05-09T14:10:27.844Z,39.10
2018-05-09T14:12:55.367Z,39.00
2018-05-09T14:15:22.879Z,39.60
2018-05-09T14:17:51.167Z,38.80
2018-05-09T14:20:19.447Z,38.90
2018-05-09T14:22:47.709Z,38.50
2018-05-09T14:25:15.285Z,38.40
2018-05-09T14:27:42.753Z,39.40
2018-05-09T14:30:10.276Z,38.80
2018-05-09T14:32:37.878Z,38.60
2018-05-09T14:35:05.384Z,38.60
2018-05-09T14:37:32.885Z,37.80
2018-05-09T14:40:00.397Z,37.20
2018-05-09T14:42:27.912Z,37.30
2018-05-09T14:44:55.466Z,38.50
2018-05-09T14:47:22.959Z,38.40
2018-05-09T14:49:50.597Z,37.70
2018-05-09T14:52:18.109Z,37.50
2018-05-09T14:54:46.139Z,38.00
2018-05-09T14:57:13.651Z,38.50
2018-05-09T14:59:41.904Z,38.30
2018-05-09T15:02:09.406Z,38.30
2018-05-09T15:04:36.897Z,37.70
2018-05-09T15:07:04.392Z,37.50
2018-05-09T15:09:31.907Z,38.50
2018-05-09T15:11:59.455Z,39.30
2018-05-09T15:14:26.974Z,38.50
2018-05-09T15:16:55.231Z,38.80
2018-05-09T15:19:22.740Z,38.70
2018-05-09T15:21:50.277Z,39.20
2018-05-09T15:24:18.562Z,39.20
2018-05-09T15:26:46.844Z,39.70
2018-05-09T15:29:14.331Z,39.60
2018-05-09T15:31:41.840Z,40.00
2018-05-09T15:34:10.103Z,39.90
2018-05-09T15:36:37.611Z,39.80
2018-05-09T15:39:05.184Z,40.00
2018-05-09T15:41:32.703Z,40.40
2018-05-09T15:44:00.967Z,40.60
2018-05-09T15:46:29.229Z,40.70
2018-05-09T15:48:56.739Z,40.70
2018-05-09T15:51:24.249Z,41.40
2018-05-09T15:53:52.507Z,41.20
2018-05-09T15:56:20.010Z,40.90
2018-05-09T15:58:47.539Z,41.10
2018-05-09T16:01:15.058Z,41.10
2018-05-09T16:03:42.569Z,41.20
2018-05-09T16:06:10.855Z,40.40
2018-05-09T16:08:38.525Z,40.40
2018-05-09T16:11:06.027Z,40.50
2018-05-09T16:13:33.530Z,40.50
2018-05-09T16:16:01.791Z,41.00
2018-05-09T16:18:30.066Z,41.20
2018-05-09T16:20:58.322Z,41.30
2018-05-09T16:23:25.841Z,41.30
2018-05-09T16:25:53.348Z,41.30
2018-05-09T16:28:20.866Z,41.40
2018-05-09T16:30:48.384Z,41.50
2018-05-09T16:33:16.665Z,41.10
2018-05-09T16:35:44.932Z,41.40
2018-05-09T16:38:13.208Z,42.00
2018-05-09T16:40:41.474Z,42.40
2018-05-09T16:43:10.486Z,42.60
2018-05-09T16:45:38.763Z,42.20
2018-05-09T16:48:07.019Z,42.10
2018-05-09T16:50:34.719Z,42.10
2018-05-09T16:53:02.231Z,42.60
2018-05-09T16:55:29.827Z,42.30
2018-05-09T16:57:57.324Z,43.00
2018-05-09T17:00:24.843Z,43.10
2018-05-09T17:02:52.343Z,42.80
2018-05-09T17:05:19.834Z,43.00
2018-05-09T17:07:47.338Z,42.90
2018-05-09T17:10:14.872Z,43.20
2018-05-09T17:12:42.366Z,43.40
2018-05-09T17:15:09.878Z,43.60
2018-05-09T17:17:38.134Z,44.20
2018-05-09T17:20:05.640Z,44.20
2018-05-09T17:22:34.074Z,43.90
2018-05-09T17:25:01.682Z,44.30
2018-05-09T17:27:29.193Z,44.00
2018-05-09T17:29:56.711Z,44.30
2018-05-09T17:32:24.202Z,44.40
2018-05-09T17:34:51.703Z,44.50
2018-05-09T17:37:19.221Z,45.00
2018-05-09T17:39:46.819Z,45.70
2018-05-09T17:42:14.326Z,45.50
2018-05-09T17:44:41.822Z,45.70
2018-05-09T17:47:10.087Z,46.10
2018-05-09T17:49:38.391Z,46.50
2018-05-09T17:52:05.908Z,46.40
2018-05-09T17:54:33.411Z,46.90
2018-05-09T17:57:00.911Z,47.20
2018-05-09T17:59:28.418Z,47.80
2018-05-09T18:01:55.931Z,48.20
2018-05-09T18:04:23.447Z,48.40
2018-05-09T18:06:50.943Z,48.50
2018-05-09T18:09:18.451Z,48.50
2018-05-09T18:11:45.949Z,48.90
2018-05-09T18:14:13.458Z,49.30
2018-05-09T18:16:42.109Z,50.10
2018-05-09T18:19:09.600Z,49.90
2018-05-09T18:21:37.868Z,50.80
2018-05-09T18:24:06.131Z,51.40
2018-05-09T18:26:33.717Z,51.40
2018-05-09T18:29:01.227Z,52.30
2018-05-09T18:31:28.738Z,52.30
2018-05-09T18:33:56.300Z,53.10
2018-05-09T18:36:23.811Z,53.40
2018-05-09T18:38:51.323Z,54.00
2018-05-09T18:41:18.840Z,54.20
2018-05-09T18:43:46.344Z,54.20
2018-05-09T18:46:13.850Z,54.50
2018-05-09T18:48:42.167Z,55.20
2018-05-09T18:51:09.655Z,55.20
2018-05-09T18:53:37.154Z,55.70
2018-05-09T18:56:05.441Z,56.90
2018-05-09T18:58:33.734Z,57.20
2018-05-09T19:01:01.226Z,56.60
2018-05-09T19:03:28.730Z,57.10
2018-05-09T19:05:56.994Z,58.10
2018-05-09T19:08:24.492Z,58.10
2018-05-09T19:10:52.002Z,58.40
2018-05-09T19:13:19.507Z,58.50
2018-05-09T19:15:47.050Z,58.70
2018-05-09T19:18:15.316Z,58.90
2018-05-09T19:20:43.610Z,58.90
2018-05-09T19:23:11.168Z,58.80
2018-05-09T19:25:38.676Z,59.00
2018-05-09T19:28:06.174Z,58.70
2018-05-09T19:30:34.441Z,58.50
2018-05-09T19:33:02.706Z,58.50
2018-05-09T19:35:30.209Z,58.50
2018-05-09T19:37:57.719Z,58.40
2018-05-09T19:40:25.214Z,58.20
2018-05-09T19:42:53.483Z,58.10
2018-05-09T19:45:20.993Z,58.30
2018-05-09T19:47:48.516Z,58.80
2018-05-09T19:50:16.015Z,58.60
2018-05-09T19:52:43.512Z,58.20
2018-05-09T19:55:11.830Z,57.90
2018-05-09T19:57:39.351Z,57.90
2018-05-09T20:00:06.856Z,57.90
2018-05-09T20:02:34.347Z,58.00
2018-05-09T20:05:02.848Z,57.90
2018-05-09T20:07:30.347Z,57.80
2018-05-09T20:09:57.844Z,58.20
2018-05-09T20:12:26.126Z,58.90
2018-05-09T20:14:54.403Z,59.40
2018-05-09T20:17:22.682Z,59.90
2018-05-09T20:19:50.205Z,59.80
2018-05-09T20:22:17.803Z,60.30
2018-05-09T20:24:45.307Z,60.70
2018-05-09T20:27:12.806Z,61.10
2018-05-09T20:29:41.063Z,61.50
2018-05-09T20:32:20.459Z,61.20
2018-05-09T20:34:47.946Z,61.70
2018-05-09T20:37:15.461Z,61.80
2018-05-09T20:39:43.022Z,61.80
2018-05-09T20:42:10.590Z,62.00
2018-05-09T20:44:38.079Z,61.50
2018-05-09T20:47:05.579Z,61.10
2018-05-09T20:49:33.862Z,60.90
2018-05-09T20:52:02.148Z,61.70
2018-05-09T20:54:29.642Z,61.70
2018-05-09T20:56:57.176Z,62.10
2018-05-09T20:59:24.694Z,62.20
2018-05-09T21:01:52.981Z,62.60
2018-05-09T21:04:21.261Z,62.40
2018-05-09T21:06:49.535Z,62.10
2018-05-09T21:09:17.873Z,62.00
2018-05-09T21:11:58.058Z,62.10
2018-05-09T21:14:26.324Z,62.00
2018-05-09T21:16:53.845Z,61.90
2018-05-09T21:19:21.355Z,61.90
2018-05-09T21:21:49.636Z,62.10
2018-05-09T21:24:17.937Z,62.20
2018-05-09T21:26:45.436Z,62.20
2018-05-09T21:29:12.928Z,62.30
2018-05-09T21:31:41.244Z,61.70
2018-05-09T21:34:08.790Z,61.70
2018-05-09T21:36:36.305Z,61.60
2018-05-09T21:39:05.498Z,61.50
2018-05-09T21:41:33.016Z,61.50
2018-05-09T21:44:00.507Z,61.50
2018-05-09T21:46:28.007Z,62.00
2018-05-09T21:48:55.514Z,61.30
2018-05-09T21:51:23.039Z,61.20
2018-05-09T21:53:50.560Z,61.50
2018-05-09T21:56:18.819Z,61.50
2018-05-09T21:58:47.129Z,60.90
2018-05-09T22:01:15.585Z,61.40
2018-05-09T22:03:43.065Z,61.40
2018-05-09T22:06:10.632Z,61.40
2018-05-09T22:08:38.155Z,61.70
2018-05-09T22:11:05.659Z,62.30
2018-05-09T22:13:33.199Z,62.30
2018-05-09T22:16:01.476Z,63.40
2018-05-09T22:18:28.970Z,63.40
2018-05-09T22:20:56.467Z,63.40
2018-05-09T22:23:25.475Z,63.10
2018-05-09T22:25:53.738Z,63.00
2018-05-09T22:28:21.254Z,63.00
2018-05-09T22:30:48.747Z,63.10
2018-05-09T22:33:16.293Z,63.10
2018-05-09T22:35:43.904Z,63.10
2018-05-09T22:38:12.182Z,63.20
2018-05-09T22:40:39.696Z,63.10
2018-05-09T22:43:07.208Z,63.40
2018-05-09T22:45:34.732Z,63.50
2018-05-09T22:48:03.015Z,64.00
2018-05-09T22:50:31.287Z,64.10
2018-05-09T22:52:59.548Z,64.40
2018-05-09T22:55:27.059Z,64.30
2018-05-09T22:57:54.570Z,64.90
2018-05-09T23:00:22.085Z,64.70
2018-05-09T23:02:49.603Z,65.40
2018-05-09T23:05:17.122Z,65.70
2018-05-09T23:07:44.622Z,66.00
2018-05-09T23:10:12.170Z,65.80
2018-05-09T23:12:39.663Z,65.70
2018-05-09T23:15:07.175Z,65.80
2018-05-09T23:17:34.756Z,65.60
2018-05-09T23:20:03.020Z,65.60
2018-05-09T23:22:31.291Z,65.80
2018-05-09T23:24:58.787Z,65.80
2018-05-09T23:27:26.304Z,66.20
2018-05-09T23:29:53.816Z,66.40
2018-05-09T23:32:21.351Z,66.50
2018-05-09T23:34:48.861Z,66.70
2018-05-09T23:37:16.366Z,66.60
2018-05-09T23:39:43.918Z,66.60
2018-05-09T23:42:12.177Z,66.40
2018-05-09T23:44:40.436Z,66.60
2018-05-09T23:47:07.979Z,66.50
2018-05-09T23:49:35.486Z,66.70
2018-05-09T23:52:03.074Z,66.80
2018-05-09T23:54:30.579Z,67.40
2018-05-09T23:56:58.079Z,68.20
2018-05-09T23:59:25.570Z,68.50
